sensor_id;sensor_type;location;lat;lon;timestamp;temperature;humidity
23114;DHT22;11726;50.122;8.832;2023-07-29T00:01:11;18.20;99.90
23114;DHT22;11726;50.122;8.832;2023-07-29T00:03:37;18.10;99.90
23114;DHT22;11726;50.122;8.832;2023-07-29T00:06:04;18.10;99.90
23114;DHT22;11726;50.122;8.832;2023-07-29T00:08:31;18.10;99.90
23114;DHT22;11726;50.122;8.832;2023-07-29T00:10:57;18.20;99.90
23114;DHT22;11726;50.122;8.832;2023-07-29T00:13:24;18.20;99.90
23114;DHT22;11726;50.122;8.832;2023-07-29T00:15:54;18.20;99.90
23114;DHT22;11726;50.122;8.832;2023-07-29T00:18:21;18.20;99.90
23114;DHT22;11726;50.122;8.832;2023-07-29T00:20:48;18.20;99.90
23114;DHT22;11726;50.122;8.832;2023-07-29T00:23:17;18.20;99.90
23114;DHT22;11726;50.122;8.832;2023-07-29T00:25:45;18.20;99.90
23114;DHT22;11726;50.122;8.832;2023-07-29T00:28:12;18.20;99.90
23114;DHT22;11726;50.122;8.832;2023-07-29T00:30:39;18.20;99.90
23114;DHT22;11726;50.122;8.832;2023-07-29T00:33:06;18.20;99.90
23114;DHT22;11726;50.122;8.832;2023-07-29T00:35:33;18.30;99.90
23114;DHT22;11726;50.122;8.832;2023-07-29T00:37:59;18.20;99.90
23114;DHT22;11726;50.122;8.832;2023-07-29T00:40:28;18.20;99.90
23114;DHT22;11726;50.122;8.832;2023-07-29T00:42:55;18.20;99.90
23114;DHT22;11726;50.122;8.832;2023-07-29T00:45:24;18.30;99.90
23114;DHT22;11726;50.122;8.832;2023-07-29T00:47:51;18.30;99.90
23114;DHT22;11726;50.122;8.832;2023-07-29T00:50:18;18.30;99.90
23114;DHT22;11726;50.122;8.832;2023-07-29T00:52:44;18.30;99.90
23114;DHT22;11726;50.122;8.832;2023-07-29T00:55:12;18.30;99.90
23114;DHT22;11726;50.122;8.832;2023-07-29T00:57:38;18.30;99.90
23114;DHT22;11726;50.122;8.832;2023-07-29T01:00:07;18.30;99.90
23114;DHT22;11726;50.122;8.832;2023-07-29T01:02:35;18.30;99.90
23114;DHT22;11726;50.122;8.832;2023-07-29T01:05:02;18.30;99.90
23114;DHT22;11726;50.122;8.832;2023-07-29T01:10:25;18.30;99.90
23114;DHT22;11726;50.122;8.832;2023-07-29T01:15:53;18.30;99.90
23114;DHT22;11726;50.122;8.832;2023-07-29T01:18:27;18.30;99.90
23114;DHT22;11726;50.122;8.832;2023-07-29T01:21:03;18.30;99.90
23114;DHT22;11726;50.122;8.832;2023-07-29T01:23:34;18.20;99.90
23114;DHT22;11726;50.122;8.832;2023-07-29T01:26:02;18.30;99.90
23114;DHT22;11726;50.122;8.832;2023-07-29T01:28:29;18.30;99.90
23114;DHT22;11726;50.122;8.832;2023-07-29T01:31:13;18.40;99.90
23114;DHT22;11726;50.122;8.832;2023-07-29T01:34:19;18.40;99.90
23114;DHT22;11726;50.122;8.832;2023-07-29T01:36:50;18.40;99.90
23114;DHT22;11726;50.122;8.832;2023-07-29T01:39:19;18.40;99.90
23114;DHT22;11726;50.122;8.832;2023-07-29T01:41:48;18.50;99.90
23114;DHT22;11726;50.122;8.832;2023-07-29T01:44:16;18.40;99.90
23114;DHT22;11726;50.122;8.832;2023-07-29T01:46:44;18.40;99.90
23114;DHT22;11726;50.122;8.832;2023-07-29T01:49:11;18.40;99.90
23114;DHT22;11726;50.122;8.832;2023-07-29T01:51:38;18.40;99.90
23114;DHT22;11726;50.122;8.832;2023-07-29T01:54:04;18.40;99.90
23114;DHT22;11726;50.122;8.832;2023-07-29T01:56:31;18.40;99.90
23114;DHT22;11726;50.122;8.832;2023-07-29T01:58:57;18.30;99.90
23114;DHT22;11726;50.122;8.832;2023-07-29T02:01:24;18.40;99.90
23114;DHT22;11726;50.122;8.832;2023-07-29T02:03:50;18.30;99.90
23114;DHT22;11726;50.122;8.832;2023-07-29T02:06:21;18.30;99.90
23114;DHT22;11726;50.122;8.832;2023-07-29T02:08:48;18.30;99.90
23114;DHT22;11726;50.122;8.832;2023-07-29T02:11:15;18.20;99.90
23114;DHT22;11726;50.122;8.832;2023-07-29T02:13:41;18.20;99.90
23114;DHT22;11726;50.122;8.832;2023-07-29T02:16:08;18.20;99.90
23114;DHT22;11726;50.122;8.832;2023-07-29T02:18:35;18.00;99.90
23114;DHT22;11726;50.122;8.832;2023-07-29T02:21:01;18.10;99.90
23114;DHT22;11726;50.122;8.832;2023-07-29T02:23:28;18.10;99.90
23114;DHT22;11726;50.122;8.832;2023-07-29T02:25:55;18.10;99.90
23114;DHT22;11726;50.122;8.832;2023-07-29T02:28:21;18.00;99.90
23114;DHT22;11726;50.122;8.832;2023-07-29T02:33:40;18.10;99.90
23114;DHT22;11726;50.122;8.832;2023-07-29T02:36:07;18.10;99.90
23114;DHT22;11726;50.122;8.832;2023-07-29T02:38:34;18.10;99.90
23114;DHT22;11726;50.122;8.832;2023-07-29T02:41:00;18.10;99.90
23114;DHT22;11726;50.122;8.832;2023-07-29T02:43:27;18.20;99.90
23114;DHT22;11726;50.122;8.832;2023-07-29T02:45:53;18.20;99.90
23114;DHT22;11726;50.122;8.832;2023-07-29T02:48:20;18.30;99.90
23114;DHT22;11726;50.122;8.832;2023-07-29T02:50:47;18.30;99.90
23114;DHT22;11726;50.122;8.832;2023-07-29T02:53:13;18.30;99.90
23114;DHT22;11726;50.122;8.832;2023-07-29T02:55:40;18.20;99.90
23114;DHT22;11726;50.122;8.832;2023-07-29T02:58:07;18.20;99.90
23114;DHT22;11726;50.122;8.832;2023-07-29T03:00:34;18.20;99.90
23114;DHT22;11726;50.122;8.832;2023-07-29T03:03:02;18.30;99.90
23114;DHT22;11726;50.122;8.832;2023-07-29T03:05:28;18.30;99.90
23114;DHT22;11726;50.122;8.832;2023-07-29T03:07:55;18.20;99.90
23114;DHT22;11726;50.122;8.832;2023-07-29T03:10:22;18.20;99.90
23114;DHT22;11726;50.122;8.832;2023-07-29T03:12:49;18.20;99.90
23114;DHT22;11726;50.122;8.832;2023-07-29T03:15:15;18.20;99.90
23114;DHT22;11726;50.122;8.832;2023-07-29T03:17:42;18.20;99.90
23114;DHT22;11726;50.122;8.832;2023-07-29T03:20:09;18.20;99.90
23114;DHT22;11726;50.122;8.832;2023-07-29T03:22:35;18.20;99.90
23114;DHT22;11726;50.122;8.832;2023-07-29T03:25:02;18.20;99.90
23114;DHT22;11726;50.122;8.832;2023-07-29T03:27:29;18.20;99.90
23114;DHT22;11726;50.122;8.832;2023-07-29T03:29:56;18.20;99.90
23114;DHT22;11726;50.122;8.832;2023-07-29T03:32:23;18.20;99.90
23114;DHT22;11726;50.122;8.832;2023-07-29T03:34:50;18.10;99.90
23114;DHT22;11726;50.122;8.832;2023-07-29T03:37:16;18.10;99.90
23114;DHT22;11726;50.122;8.832;2023-07-29T03:39:43;18.00;99.90
23114;DHT22;11726;50.122;8.832;2023-07-29T03:42:09;18.00;99.90
23114;DHT22;11726;50.122;8.832;2023-07-29T03:44:36;18.00;99.90
23114;DHT22;11726;50.122;8.832;2023-07-29T03:47:06;18.10;99.90
23114;DHT22;11726;50.122;8.832;2023-07-29T03:49:32;18.00;99.90
23114;DHT22;11726;50.122;8.832;2023-07-29T03:51:59;18.00;99.90
23114;DHT22;11726;50.122;8.832;2023-07-29T03:54:25;18.10;99.90
23114;DHT22;11726;50.122;8.832;2023-07-29T03:56:52;18.00;99.90
23114;DHT22;11726;50.122;8.832;2023-07-29T03:59:19;18.00;99.90
23114;DHT22;11726;50.122;8.832;2023-07-29T04:01:45;18.00;99.90
23114;DHT22;11726;50.122;8.832;2023-07-29T04:04:12;18.00;99.90
23114;DHT22;11726;50.122;8.832;2023-07-29T04:06:39;18.10;99.90
23114;DHT22;11726;50.122;8.832;2023-07-29T04:09:06;18.10;99.90
23114;DHT22;11726;50.122;8.832;2023-07-29T04:11:32;18.10;99.90
23114;DHT22;11726;50.122;8.832;2023-07-29T04:13:59;18.20;99.90
23114;DHT22;11726;50.122;8.832;2023-07-29T04:16:26;18.20;99.90
23114;DHT22;11726;50.122;8.832;2023-07-29T04:18:53;18.20;99.90
23114;DHT22;11726;50.122;8.832;2023-07-29T04:21:20;18.10;99.90
23114;DHT22;11726;50.122;8.832;2023-07-29T04:23:46;18.20;99.90
23114;DHT22;11726;50.122;8.832;2023-07-29T04:26:13;18.20;99.90
23114;DHT22;11726;50.122;8.832;2023-07-29T04:28:39;18.20;99.90
23114;DHT22;11726;50.122;8.832;2023-07-29T04:31:06;18.30;99.90
23114;DHT22;11726;50.122;8.832;2023-07-29T04:33:33;18.20;99.90
23114;DHT22;11726;50.122;8.832;2023-07-29T04:36:03;18.30;99.90
23114;DHT22;11726;50.122;8.832;2023-07-29T04:38:33;18.30;99.90
23114;DHT22;11726;50.122;8.832;2023-07-29T04:41:00;18.30;99.90
23114;DHT22;11726;50.122;8.832;2023-07-29T04:43:33;18.30;99.90
23114;DHT22;11726;50.122;8.832;2023-07-29T04:46:00;18.30;99.90
23114;DHT22;11726;50.122;8.832;2023-07-29T04:48:26;18.40;99.90
23114;DHT22;11726;50.122;8.832;2023-07-29T04:50:53;18.40;99.90
23114;DHT22;11726;50.122;8.832;2023-07-29T04:53:20;18.40;99.90
23114;DHT22;11726;50.122;8.832;2023-07-29T04:55:47;18.40;99.90
23114;DHT22;11726;50.122;8.832;2023-07-29T04:58:13;18.50;99.90
23114;DHT22;11726;50.122;8.832;2023-07-29T05:00:40;18.50;99.90
23114;DHT22;11726;50.122;8.832;2023-07-29T05:03:06;18.50;99.90
23114;DHT22;11726;50.122;8.832;2023-07-29T05:05:33;18.50;99.90
23114;DHT22;11726;50.122;8.832;2023-07-29T05:08:00;18.50;99.90
23114;DHT22;11726;50.122;8.832;2023-07-29T05:10:27;18.50;99.90
23114;DHT22;11726;50.122;8.832;2023-07-29T05:12:53;18.60;99.90
23114;DHT22;11726;50.122;8.832;2023-07-29T05:15:20;18.60;99.90
23114;DHT22;11726;50.122;8.832;2023-07-29T05:17:47;18.60;99.90
23114;DHT22;11726;50.122;8.832;2023-07-29T05:20:13;18.60;99.90
23114;DHT22;11726;50.122;8.832;2023-07-29T05:22:40;18.70;99.90
23114;DHT22;11726;50.122;8.832;2023-07-29T05:25:07;18.80;99.90
23114;DHT22;11726;50.122;8.832;2023-07-29T05:27:34;18.80;99.90
23114;DHT22;11726;50.122;8.832;2023-07-29T05:30:00;18.80;99.90
23114;DHT22;11726;50.122;8.832;2023-07-29T05:32:27;18.80;99.90
23114;DHT22;11726;50.122;8.832;2023-07-29T05:34:54;18.90;99.90
23114;DHT22;11726;50.122;8.832;2023-07-29T05:37:20;18.90;99.90
23114;DHT22;11726;50.122;8.832;2023-07-29T05:39:47;18.90;99.90
23114;DHT22;11726;50.122;8.832;2023-07-29T05:42:14;18.90;99.90
23114;DHT22;11726;50.122;8.832;2023-07-29T05:44:40;19.00;99.90
23114;DHT22;11726;50.122;8.832;2023-07-29T05:47:07;18.90;99.90
23114;DHT22;11726;50.122;8.832;2023-07-29T05:49:34;19.00;99.90
23114;DHT22;11726;50.122;8.832;2023-07-29T05:52:01;19.00;99.90
23114;DHT22;11726;50.122;8.832;2023-07-29T05:54:27;19.00;99.90
23114;DHT22;11726;50.122;8.832;2023-07-29T05:56:54;19.00;99.90
23114;DHT22;11726;50.122;8.832;2023-07-29T05:59:21;19.00;99.90
23114;DHT22;11726;50.122;8.832;2023-07-29T06:01:48;19.10;99.90
23114;DHT22;11726;50.122;8.832;2023-07-29T06:04:14;19.10;99.90
23114;DHT22;11726;50.122;8.832;2023-07-29T06:06:41;19.10;99.90
23114;DHT22;11726;50.122;8.832;2023-07-29T06:09:08;19.20;99.90
23114;DHT22;11726;50.122;8.832;2023-07-29T06:11:34;19.20;99.90
23114;DHT22;11726;50.122;8.832;2023-07-29T06:14:01;19.30;99.90
23114;DHT22;11726;50.122;8.832;2023-07-29T06:16:28;19.30;99.90
23114;DHT22;11726;50.122;8.832;2023-07-29T06:18:54;19.30;99.90
23114;DHT22;11726;50.122;8.832;2023-07-29T06:21:21;19.20;99.90
23114;DHT22;11726;50.122;8.832;2023-07-29T06:23:48;19.20;99.90
23114;DHT22;11726;50.122;8.832;2023-07-29T06:26:15;19.30;99.90
23114;DHT22;11726;50.122;8.832;2023-07-29T06:28:41;19.20;99.90
23114;DHT22;11726;50.122;8.832;2023-07-29T06:31:08;19.30;99.90
23114;DHT22;11726;50.122;8.832;2023-07-29T06:33:35;19.20;99.90
23114;DHT22;11726;50.122;8.832;2023-07-29T06:36:01;19.20;99.90
23114;DHT22;11726;50.122;8.832;2023-07-29T06:38:28;19.20;99.90
23114;DHT22;11726;50.122;8.832;2023-07-29T06:40:55;19.20;99.90
23114;DHT22;11726;50.122;8.832;2023-07-29T06:43:21;19.10;99.90
23114;DHT22;11726;50.122;8.832;2023-07-29T06:45:48;19.00;99.90
23114;DHT22;11726;50.122;8.832;2023-07-29T06:48:15;19.00;99.90
23114;DHT22;11726;50.122;8.832;2023-07-29T06:50:41;18.90;99.90
23114;DHT22;11726;50.122;8.832;2023-07-29T06:53:09;18.90;99.90
23114;DHT22;11726;50.122;8.832;2023-07-29T06:55:35;18.90;99.90
23114;DHT22;11726;50.122;8.832;2023-07-29T06:58:02;18.90;99.90
23114;DHT22;11726;50.122;8.832;2023-07-29T07:00:29;18.90;99.90
23114;DHT22;11726;50.122;8.832;2023-07-29T07:02:56;19.00;99.90
23114;DHT22;11726;50.122;8.832;2023-07-29T07:05:23;19.00;99.90
23114;DHT22;11726;50.122;8.832;2023-07-29T07:07:50;19.10;99.90
23114;DHT22;11726;50.122;8.832;2023-07-29T07:10:16;19.00;99.90
23114;DHT22;11726;50.122;8.832;2023-07-29T07:12:43;19.10;99.90
23114;DHT22;11726;50.122;8.832;2023-07-29T07:15:10;19.10;99.90
23114;DHT22;11726;50.122;8.832;2023-07-29T07:17:36;19.10;99.90
23114;DHT22;11726;50.122;8.832;2023-07-29T07:20:03;19.20;99.90
23114;DHT22;11726;50.122;8.832;2023-07-29T07:22:30;19.20;99.90
23114;DHT22;11726;50.122;8.832;2023-07-29T07:24:57;19.20;99.90
23114;DHT22;11726;50.122;8.832;2023-07-29T07:27:23;19.30;99.90
23114;DHT22;11726;50.122;8.832;2023-07-29T07:29:50;19.30;99.90
23114;DHT22;11726;50.122;8.832;2023-07-29T07:32:16;19.30;99.90
23114;DHT22;11726;50.122;8.832;2023-07-29T07:34:43;19.30;99.90
23114;DHT22;11726;50.122;8.832;2023-07-29T07:37:10;19.30;99.90
23114;DHT22;11726;50.122;8.832;2023-07-29T07:39:36;19.30;99.90
23114;DHT22;11726;50.122;8.832;2023-07-29T07:42:03;19.40;99.90
23114;DHT22;11726;50.122;8.832;2023-07-29T07:44:30;19.40;99.90
23114;DHT22;11726;50.122;8.832;2023-07-29T07:46:57;19.40;99.90
23114;DHT22;11726;50.122;8.832;2023-07-29T07:49:23;19.50;99.90
23114;DHT22;11726;50.122;8.832;2023-07-29T07:51:50;19.50;99.90
23114;DHT22;11726;50.122;8.832;2023-07-29T07:54:17;19.50;99.90
23114;DHT22;11726;50.122;8.832;2023-07-29T07:56:43;19.60;99.90
23114;DHT22;11726;50.122;8.832;2023-07-29T07:59:10;19.70;99.90
23114;DHT22;11726;50.122;8.832;2023-07-29T08:01:38;19.70;99.90
23114;DHT22;11726;50.122;8.832;2023-07-29T08:04:05;19.90;99.90
23114;DHT22;11726;50.122;8.832;2023-07-29T08:06:33;20.00;99.90
23114;DHT22;11726;50.122;8.832;2023-07-29T08:09:00;20.00;99.90
23114;DHT22;11726;50.122;8.832;2023-07-29T08:11:26;20.00;99.90
23114;DHT22;11726;50.122;8.832;2023-07-29T08:13:53;20.00;99.90
23114;DHT22;11726;50.122;8.832;2023-07-29T08:16:20;20.00;99.90
23114;DHT22;11726;50.122;8.832;2023-07-29T08:18:47;20.00;99.90
23114;DHT22;11726;50.122;8.832;2023-07-29T08:21:14;20.00;99.90
23114;DHT22;11726;50.122;8.832;2023-07-29T08:23:40;20.00;99.90
23114;DHT22;11726;50.122;8.832;2023-07-29T08:26:07;19.90;99.90
23114;DHT22;11726;50.122;8.832;2023-07-29T08:28:38;19.90;99.90
23114;DHT22;11726;50.122;8.832;2023-07-29T08:31:06;19.90;99.90
23114;DHT22;11726;50.122;8.832;2023-07-29T08:33:32;20.10;99.90
23114;DHT22;11726;50.122;8.832;2023-07-29T08:36:01;20.20;99.90
23114;DHT22;11726;50.122;8.832;2023-07-29T08:38:27;20.30;99.90
23114;DHT22;11726;50.122;8.832;2023-07-29T08:43:41;20.60;99.90
23114;DHT22;11726;50.122;8.832;2023-07-29T08:46:09;20.70;99.90
23114;DHT22;11726;50.122;8.832;2023-07-29T08:48:40;20.70;99.90
23114;DHT22;11726;50.122;8.832;2023-07-29T08:51:08;20.80;99.90
23114;DHT22;11726;50.122;8.832;2023-07-29T08:53:36;20.90;99.90
23114;DHT22;11726;50.122;8.832;2023-07-29T08:56:03;21.00;99.90
23114;DHT22;11726;50.122;8.832;2023-07-29T08:58:30;21.10;99.90
23114;DHT22;11726;50.122;8.832;2023-07-29T09:00:57;21.10;99.90
23114;DHT22;11726;50.122;8.832;2023-07-29T09:03:24;21.20;99.90
23114;DHT22;11726;50.122;8.832;2023-07-29T09:05:51;21.30;99.90
23114;DHT22;11726;50.122;8.832;2023-07-29T09:08:19;21.40;99.90
23114;DHT22;11726;50.122;8.832;2023-07-29T09:10:46;21.50;99.90
23114;DHT22;11726;50.122;8.832;2023-07-29T09:13:12;21.60;99.90
23114;DHT22;11726;50.122;8.832;2023-07-29T09:15:39;21.70;99.90
23114;DHT22;11726;50.122;8.832;2023-07-29T09:18:17;21.80;99.90
23114;DHT22;11726;50.122;8.832;2023-07-29T09:20:49;21.90;99.90
23114;DHT22;11726;50.122;8.832;2023-07-29T09:23:16;22.10;99.90
23114;DHT22;11726;50.122;8.832;2023-07-29T09:25:43;22.10;99.90
23114;DHT22;11726;50.122;8.832;2023-07-29T09:28:14;22.10;99.90
23114;DHT22;11726;50.122;8.832;2023-07-29T09:30:45;22.20;99.90
23114;DHT22;11726;50.122;8.832;2023-07-29T09:33:13;22.30;99.90
23114;DHT22;11726;50.122;8.832;2023-07-29T09:35:39;22.50;99.90
23114;DHT22;11726;50.122;8.832;2023-07-29T09:38:07;22.60;99.90
23114;DHT22;11726;50.122;8.832;2023-07-29T09:40:40;22.70;99.90
23114;DHT22;11726;50.122;8.832;2023-07-29T09:43:09;22.80;99.90
23114;DHT22;11726;50.122;8.832;2023-07-29T09:45:37;22.60;99.90
23114;DHT22;11726;50.122;8.832;2023-07-29T09:48:04;22.70;99.90
23114;DHT22;11726;50.122;8.832;2023-07-29T09:50:35;22.80;99.90
23114;DHT22;11726;50.122;8.832;2023-07-29T09:53:03;22.80;99.90
23114;DHT22;11726;50.122;8.832;2023-07-29T09:55:33;22.90;99.90
23114;DHT22;11726;50.122;8.832;2023-07-29T09:58:00;23.10;99.90
23114;DHT22;11726;50.122;8.832;2023-07-29T10:00:30;23.10;99.90
23114;DHT22;11726;50.122;8.832;2023-07-29T10:03:00;23.10;99.90
23114;DHT22;11726;50.122;8.832;2023-07-29T10:05:28;23.30;99.90
23114;DHT22;11726;50.122;8.832;2023-07-29T10:07:56;23.30;99.90
23114;DHT22;11726;50.122;8.832;2023-07-29T10:10:22;23.10;99.90
23114;DHT22;11726;50.122;8.832;2023-07-29T10:12:50;23.00;99.90
23114;DHT22;11726;50.122;8.832;2023-07-29T10:15:17;22.80;99.90
23114;DHT22;11726;50.122;8.832;2023-07-29T10:17:45;22.90;99.90
23114;DHT22;11726;50.122;8.832;2023-07-29T10:20:15;22.80;99.90
23114;DHT22;11726;50.122;8.832;2023-07-29T10:22:45;22.90;99.90
23114;DHT22;11726;50.122;8.832;2023-07-29T10:25:17;23.00;99.90
23114;DHT22;11726;50.122;8.832;2023-07-29T10:27:48;22.90;99.90
23114;DHT22;11726;50.122;8.832;2023-07-29T10:30:16;23.00;99.90
23114;DHT22;11726;50.122;8.832;2023-07-29T10:32:43;23.10;99.90
23114;DHT22;11726;50.122;8.832;2023-07-29T10:35:14;23.40;99.90
23114;DHT22;11726;50.122;8.832;2023-07-29T10:37:41;23.50;99.90
23114;DHT22;11726;50.122;8.832;2023-07-29T10:40:10;23.60;99.90
23114;DHT22;11726;50.122;8.832;2023-07-29T10:42:38;23.80;99.90
23114;DHT22;11726;50.122;8.832;2023-07-29T10:45:21;23.80;99.90
23114;DHT22;11726;50.122;8.832;2023-07-29T10:47:48;24.00;99.90
23114;DHT22;11726;50.122;8.832;2023-07-29T10:50:22;24.10;99.90
23114;DHT22;11726;50.122;8.832;2023-07-29T10:52:50;24.00;99.90
23114;DHT22;11726;50.122;8.832;2023-07-29T10:55:32;24.20;99.90
23114;DHT22;11726;50.122;8.832;2023-07-29T10:58:14;24.70;99.90
23114;DHT22;11726;50.122;8.832;2023-07-29T11:00:44;24.70;99.90
23114;DHT22;11726;50.122;8.832;2023-07-29T11:03:13;24.80;99.90
23114;DHT22;11726;50.122;8.832;2023-07-29T11:08:28;25.00;99.90
23114;DHT22;11726;50.122;8.832;2023-07-29T11:11:07;25.10;99.90
23114;DHT22;11726;50.122;8.832;2023-07-29T11:13:36;25.00;99.90
23114;DHT22;11726;50.122;8.832;2023-07-29T11:16:04;25.10;99.90
23114;DHT22;11726;50.122;8.832;2023-07-29T11:18:35;25.00;99.90
23114;DHT22;11726;50.122;8.832;2023-07-29T11:21:03;25.00;99.90
23114;DHT22;11726;50.122;8.832;2023-07-29T11:23:34;24.70;99.90
23114;DHT22;11726;50.122;8.832;2023-07-29T11:26:02;24.40;99.90
23114;DHT22;11726;50.122;8.832;2023-07-29T11:28:29;24.10;99.90
23114;DHT22;11726;50.122;8.832;2023-07-29T11:30:57;23.70;99.90
23114;DHT22;11726;50.122;8.832;2023-07-29T11:33:26;23.70;99.90
23114;DHT22;11726;50.122;8.832;2023-07-29T11:35:55;23.50;99.90
23114;DHT22;11726;50.122;8.832;2023-07-29T11:38:22;23.30;99.90
23114;DHT22;11726;50.122;8.832;2023-07-29T11:41:00;22.90;99.90
23114;DHT22;11726;50.122;8.832;2023-07-29T11:43:29;22.90;99.90
23114;DHT22;11726;50.122;8.832;2023-07-29T11:45:55;22.90;99.90
23114;DHT22;11726;50.122;8.832;2023-07-29T11:48:32;22.90;99.90
23114;DHT22;11726;50.122;8.832;2023-07-29T11:50:59;23.20;99.90
23114;DHT22;11726;50.122;8.832;2023-07-29T11:53:30;23.60;99.90
23114;DHT22;11726;50.122;8.832;2023-07-29T11:55:58;24.00;99.90
23114;DHT22;11726;50.122;8.832;2023-07-29T11:58:24;24.30;99.90
23114;DHT22;11726;50.122;8.832;2023-07-29T12:00:52;24.60;99.90
23114;DHT22;11726;50.122;8.832;2023-07-29T12:03:19;24.70;99.90
23114;DHT22;11726;50.122;8.832;2023-07-29T12:05:47;25.00;99.90
23114;DHT22;11726;50.122;8.832;2023-07-29T12:08:15;25.30;99.90
23114;DHT22;11726;50.122;8.832;2023-07-29T12:10:42;25.60;99.90
23114;DHT22;11726;50.122;8.832;2023-07-29T12:13:09;25.60;99.90
23114;DHT22;11726;50.122;8.832;2023-07-29T12:15:38;25.60;99.90
23114;DHT22;11726;50.122;8.832;2023-07-29T12:18:06;25.40;99.90
23114;DHT22;11726;50.122;8.832;2023-07-29T12:20:33;25.60;99.90
23114;DHT22;11726;50.122;8.832;2023-07-29T12:23:00;25.90;99.90
23114;DHT22;11726;50.122;8.832;2023-07-29T12:25:33;25.80;99.90
23114;DHT22;11726;50.122;8.832;2023-07-29T12:28:05;25.50;99.90
23114;DHT22;11726;50.122;8.832;2023-07-29T12:30:32;25.30;99.90
23114;DHT22;11726;50.122;8.832;2023-07-29T12:32:59;25.00;99.90
23114;DHT22;11726;50.122;8.832;2023-07-29T12:35:36;24.80;99.90
23114;DHT22;11726;50.122;8.832;2023-07-29T12:38:03;25.10;99.90
23114;DHT22;11726;50.122;8.832;2023-07-29T12:40:30;25.00;99.90
23114;DHT22;11726;50.122;8.832;2023-07-29T12:42:57;25.60;99.90
23114;DHT22;11726;50.122;8.832;2023-07-29T12:45:24;26.20;99.90
23114;DHT22;11726;50.122;8.832;2023-07-29T12:47:53;26.40;99.90
23114;DHT22;11726;50.122;8.832;2023-07-29T12:50:20;26.80;99.90
23114;DHT22;11726;50.122;8.832;2023-07-29T12:52:47;26.50;99.90
23114;DHT22;11726;50.122;8.832;2023-07-29T12:55:14;26.90;99.90
23114;DHT22;11726;50.122;8.832;2023-07-29T12:57:42;26.80;99.90
23114;DHT22;11726;50.122;8.832;2023-07-29T13:00:10;27.10;99.90
23114;DHT22;11726;50.122;8.832;2023-07-29T13:02:37;27.50;99.90
23114;DHT22;11726;50.122;8.832;2023-07-29T13:05:04;27.20;99.90
23114;DHT22;11726;50.122;8.832;2023-07-29T13:07:30;26.90;99.90
23114;DHT22;11726;50.122;8.832;2023-07-29T13:09:57;26.60;99.90
23114;DHT22;11726;50.122;8.832;2023-07-29T13:12:24;26.20;99.90
23114;DHT22;11726;50.122;8.832;2023-07-29T13:14:50;26.00;99.90
23114;DHT22;11726;50.122;8.832;2023-07-29T13:17:17;26.10;99.90
23114;DHT22;11726;50.122;8.832;2023-07-29T13:19:44;25.90;99.90
23114;DHT22;11726;50.122;8.832;2023-07-29T13:22:11;25.80;99.90
23114;DHT22;11726;50.122;8.832;2023-07-29T13:24:37;25.70;99.90
23114;DHT22;11726;50.122;8.832;2023-07-29T13:27:04;25.90;99.90
23114;DHT22;11726;50.122;8.832;2023-07-29T13:29:31;25.80;99.90
23114;DHT22;11726;50.122;8.832;2023-07-29T13:31:58;25.80;99.90
23114;DHT22;11726;50.122;8.832;2023-07-29T13:34:25;25.70;99.90
23114;DHT22;11726;50.122;8.832;2023-07-29T13:36:51;25.70;99.90
23114;DHT22;11726;50.122;8.832;2023-07-29T13:39:18;25.70;99.90
23114;DHT22;11726;50.122;8.832;2023-07-29T13:41:45;25.70;99.90
23114;DHT22;11726;50.122;8.832;2023-07-29T13:44:11;25.80;99.90
23114;DHT22;11726;50.122;8.832;2023-07-29T13:46:38;25.70;99.90
23114;DHT22;11726;50.122;8.832;2023-07-29T13:49:05;26.20;99.90
23114;DHT22;11726;50.122;8.832;2023-07-29T13:51:32;26.90;99.90
23114;DHT22;11726;50.122;8.832;2023-07-29T13:53:58;27.10;99.90
23114;DHT22;11726;50.122;8.832;2023-07-29T13:56:25;27.20;99.90
23114;DHT22;11726;50.122;8.832;2023-07-29T13:58:52;27.10;99.90
23114;DHT22;11726;50.122;8.832;2023-07-29T14:01:19;27.30;99.90
23114;DHT22;11726;50.122;8.832;2023-07-29T14:03:45;27.70;99.40
23114;DHT22;11726;50.122;8.832;2023-07-29T14:06:12;27.20;99.90
23114;DHT22;11726;50.122;8.832;2023-07-29T14:08:39;26.80;99.90
23114;DHT22;11726;50.122;8.832;2023-07-29T14:11:07;26.50;99.90
23114;DHT22;11726;50.122;8.832;2023-07-29T14:13:34;26.40;99.90
23114;DHT22;11726;50.122;8.832;2023-07-29T14:16:01;26.50;99.90
23114;DHT22;11726;50.122;8.832;2023-07-29T14:18:29;26.50;99.90
23114;DHT22;11726;50.122;8.832;2023-07-29T14:20:56;26.90;99.90
23114;DHT22;11726;50.122;8.832;2023-07-29T14:23:23;27.30;99.90
23114;DHT22;11726;50.122;8.832;2023-07-29T14:25:49;27.80;99.90
23114;DHT22;11726;50.122;8.832;2023-07-29T14:28:16;28.10;97.50
23114;DHT22;11726;50.122;8.832;2023-07-29T14:30:43;27.50;99.90
23114;DHT22;11726;50.122;8.832;2023-07-29T14:33:10;27.70;99.90
23114;DHT22;11726;50.122;8.832;2023-07-29T14:35:37;28.00;97.30
23114;DHT22;11726;50.122;8.832;2023-07-29T14:38:03;28.20;97.80
23114;DHT22;11726;50.122;8.832;2023-07-29T14:40:30;28.50;97.70
23114;DHT22;11726;50.122;8.832;2023-07-29T14:42:57;29.20;96.80
23114;DHT22;11726;50.122;8.832;2023-07-29T14:45:24;29.40;93.80
23114;DHT22;11726;50.122;8.832;2023-07-29T14:47:50;28.90;93.60
23114;DHT22;11726;50.122;8.832;2023-07-29T14:50:17;29.50;92.70
23114;DHT22;11726;50.122;8.832;2023-07-29T14:52:44;29.70;91.90
23114;DHT22;11726;50.122;8.832;2023-07-29T14:55:10;29.60;91.20
23114;DHT22;11726;50.122;8.832;2023-07-29T14:57:37;29.10;91.50
23114;DHT22;11726;50.122;8.832;2023-07-29T15:00:04;28.80;90.60
23114;DHT22;11726;50.122;8.832;2023-07-29T15:02:31;28.70;91.10
23114;DHT22;11726;50.122;8.832;2023-07-29T15:04:58;28.90;91.00
23114;DHT22;11726;50.122;8.832;2023-07-29T15:07:25;29.50;88.90
23114;DHT22;11726;50.122;8.832;2023-07-29T15:09:51;29.20;88.40
23114;DHT22;11726;50.122;8.832;2023-07-29T15:12:18;29.40;88.60
23114;DHT22;11726;50.122;8.832;2023-07-29T15:14:45;29.30;90.30
23114;DHT22;11726;50.122;8.832;2023-07-29T15:17:14;29.70;89.80
23114;DHT22;11726;50.122;8.832;2023-07-29T15:19:40;29.60;88.20
23114;DHT22;11726;50.122;8.832;2023-07-29T15:22:07;30.20;85.60
23114;DHT22;11726;50.122;8.832;2023-07-29T15:24:34;30.10;84.70
23114;DHT22;11726;50.122;8.832;2023-07-29T15:27:00;30.10;87.50
23114;DHT22;11726;50.122;8.832;2023-07-29T15:29:27;30.50;85.40
23114;DHT22;11726;50.122;8.832;2023-07-29T15:31:54;30.90;82.40
23114;DHT22;11726;50.122;8.832;2023-07-29T15:34:20;30.50;80.50
23114;DHT22;11726;50.122;8.832;2023-07-29T15:36:50;29.80;82.10
23114;DHT22;11726;50.122;8.832;2023-07-29T15:39:16;30.10;82.10
23114;DHT22;11726;50.122;8.832;2023-07-29T15:41:43;28.90;84.30
23114;DHT22;11726;50.122;8.832;2023-07-29T15:44:10;28.70;89.20
23114;DHT22;11726;50.122;8.832;2023-07-29T15:46:36;29.30;87.00